Time;durP1;ratioP1;P1;durP2;ratioP2;P2;SDS_P1;SDS_P2;PMS_P1;PMS_P2;Temp;Humidity;BMP_temperature;BMP_pressure;BME280_temperature;BME280_humidity;BME280_pressure;Samples;Min_cycle;Max_cycle;Signal;HPM_P1;HPM_P2
2021/01/14 00:01:11;;;;;;;6.30;3.67;;;3.40;85.40;;;;;;4888764;28;86866;-80
2021/01/14 00:03:37;;;;;;;8.63;3.90;;;3.40;85.00;;;;;;4887934;28;87050;-80
2021/01/14 00:06:03;;;;;;;6.80;4.07;;;3.40;84.90;;;;;;4888230;28;90905;-80
2021/01/14 00:08:29;;;;;;;7.17;3.70;;;3.40;84.40;;;;;;4888223;28;90668;-80
2021/01/14 00:10:55;;;;;;;9.33;4.30;;;3.30;84.70;;;;;;4889313;28;87142;-80
2021/01/14 00:13:21;;;;;;;6.13;3.57;;;3.30;84.80;;;;;;4873107;28;88191;-80
2021/01/14 00:15:47;;;;;;;5.80;3.33;;;3.20;84.80;;;;;;4889604;28;87696;-80
2021/01/14 00:18:13;;;;;;;8.57;4.10;;;3.20;85.00;;;;;;4889554;28;89991;-80
2021/01/14 00:20:39;;;;;;;9.17;4.27;;;3.10;84.90;;;;;;4874037;28;87905;-80
2021/01/14 00:23:04;;;;;;;6.17;3.53;;;3.20;85.00;;;;;;4881155;28;87833;-81
2021/01/14 00:25:30;;;;;;;8.60;4.00;;;3.20;84.60;;;;;;4911204;28;88214;-80
2021/01/14 00:27:56;;;;;;;7.23;3.00;;;3.30;84.20;;;;;;4888829;28;90328;-80
2021/01/14 00:30:30;;;;;;;6.43;2.80;;;3.30;83.50;;;;;;4888495;28;86807;-80
2021/01/14 00:32:58;;;;;;;8.70;2.93;;;3.20;83.10;;;;;;4889481;28;87816;-80
2021/01/14 00:35:26;;;;;;;5.77;2.93;;;3.30;83.50;;;;;;4888515;28;88324;-80
2021/01/14 00:37:53;;;;;;;5.20;2.63;;;3.40;84.00;;;;;;4888838;28;90962;-80
2021/01/14 00:40:33;;;;;;;4.87;2.53;;;3.40;84.00;;;;;;4872867;28;86996;-78
2021/01/14 00:43:04;;;;;;;3.73;2.00;;;3.50;84.10;;;;;;4889161;28;87283;-80
2021/01/14 00:45:31;;;;;;;6.50;2.50;;;3.50;84.30;;;;;;4888755;28;88706;-80
2021/01/14 00:47:58;;;;;;;2.87;1.50;;;3.50;84.30;;;;;;4888436;28;89406;-80
2021/01/14 00:50:25;;;;;;;5.03;2.33;;;3.50;84.70;;;;;;4904944;28;86929;-80
2021/01/14 00:52:51;;;;;;;5.50;2.13;;;3.40;84.90;;;;;;4888648;28;87030;-81
2021/01/14 00:55:18;;;;;;;5.63;2.50;;;3.50;85.10;;;;;;4873134;28;91528;-81
2021/01/14 00:57:45;;;;;;;6.40;2.90;;;3.40;85.10;;;;;;4887983;28;88041;-80
2021/01/14 01:00:13;;;;;;;5.73;3.73;;;3.40;85.20;;;;;;4889195;28;86941;-81
2021/01/14 01:02:44;;;;;;;7.07;3.90;;;3.50;85.10;;;;;;4888339;28;87222;-80
2021/01/14 01:05:11;;;;;;;6.17;2.80;;;3.50;85.00;;;;;;4888977;28;88714;-80
2021/01/14 01:07:38;;;;;;;7.73;3.40;;;3.40;85.30;;;;;;4898193;28;91148;-80
2021/01/14 01:10:06;;;;;;;7.20;3.77;;;3.30;85.60;;;;;;4888056;28;87798;-80
2021/01/14 01:12:32;;;;;;;5.70;3.03;;;3.30;86.00;;;;;;4903835;28;87810;-80
2021/01/14 01:14:58;;;;;;;4.37;2.80;;;3.40;86.10;;;;;;4888115;28;89988;-80
2021/01/14 01:17:30;;;;;;;5.83;3.23;;;3.40;86.20;;;;;;4904012;28;87821;-79
2021/01/14 01:19:56;;;;;;;4.87;3.20;;;3.40;86.10;;;;;;4906225;28;86797;-80
2021/01/14 01:22:22;;;;;;;4.73;2.87;;;3.40;86.00;;;;;;4888912;28;87889;-78
2021/01/14 01:24:47;;;;;;;7.77;3.47;;;3.30;86.50;;;;;;4889165;28;91567;-80
2021/01/14 01:27:13;;;;;;;13.23;3.93;;;3.30;86.80;;;;;;4891767;28;91698;-80
2021/01/14 01:29:39;;;;;;;5.13;2.83;;;3.30;86.70;;;;;;4912222;28;87394;-80
2021/01/14 01:32:05;;;;;;;3.43;1.93;;;3.30;86.30;;;;;;4917442;28;87163;-80
2021/01/14 01:34:31;;;;;;;3.23;2.20;;;3.20;86.30;;;;;;4914988;28;88541;-79
2021/01/14 01:36:57;;;;;;;3.67;1.90;;;3.10;86.60;;;;;;4903223;28;91022;-80
2021/01/14 01:39:22;;;;;;;3.13;1.50;;;3.00;87.10;;;;;;4903116;28;86906;-79
2021/01/14 01:41:48;;;;;;;3.13;1.70;;;2.90;87.60;;;;;;4902269;28;88117;-80
2021/01/14 01:44:14;;;;;;;3.80;1.27;;;2.90;87.70;;;;;;4903181;28;87775;-80
2021/01/14 01:46:40;;;;;;;3.17;1.30;;;2.80;88.10;;;;;;4886279;28;90494;-80
2021/01/14 01:49:07;;;;;;;5.00;2.07;;;2.70;88.50;;;;;;4902887;28;87015;-80
2021/01/14 01:51:40;;;;;;;2.80;1.60;;;2.80;88.20;;;;;;4903938;28;86302;-80
2021/01/14 01:54:07;;;;;;;2.67;1.50;;;2.90;87.80;;;;;;4902789;28;91295;-80
2021/01/14 01:56:35;;;;;;;2.80;1.53;;;2.80;87.80;;;;;;4886392;28;91262;-79
2021/01/14 01:59:01;;;;;;;3.50;2.07;;;2.80;88.00;;;;;;4902324;28;88112;-80
2021/01/14 02:01:27;;;;;;;2.00;1.30;;;2.80;87.70;;;;;;4905030;28;87280;-78
2021/01/14 02:03:53;;;;;;;2.67;1.50;;;2.90;87.80;;;;;;4904728;28;91772;-80
2021/01/14 02:06:20;;;;;;;2.47;1.40;;;2.90;87.30;;;;;;4906522;28;87807;-80
2021/01/14 02:09:02;;;;;;;4.67;1.90;;;2.90;86.50;;;;;;4906534;28;86995;-80
2021/01/14 02:11:33;;;;;;;3.25;1.70;;;3.00;86.50;;;;;;4906436;28;87853;-78
2021/01/14 02:14:19;;;;;;;3.90;1.90;;;3.00;86.20;;;;;;4889745;28;90337;-80
2021/01/14 02:16:46;;;;;;;3.13;1.50;;;3.00;85.60;;;;;;4888782;28;91609;-80
2021/01/14 02:19:23;;;;;;;3.80;1.40;;;3.10;85.40;;;;;;4907592;28;86777;-80
2021/01/14 02:21:57;;;;;;;3.83;1.93;;;3.00;85.20;;;;;;4890565;28;88097;-80
2021/01/14 02:25:27;;;;;;;3.77;1.80;;;3.00;85.30;;;;;;4905806;28;91021;-80
2021/01/14 02:27:54;;;;;;;2.23;1.53;;;3.00;85.20;;;;;;4831399;29;92831;-80
2021/01/14 02:30:20;;;;;;;3.37;1.70;;;3.00;85.20;;;;;;4907813;28;86866;-80
2021/01/14 02:32:46;;;;;;;5.00;2.10;;;3.00;85.10;;;;;;4906200;28;87125;-80
2021/01/14 02:35:12;;;;;;;9.33;2.23;;;3.10;85.00;;;;;;4906356;28;90869;-80
2021/01/14 02:37:38;;;;;;;3.10;2.07;;;3.10;84.70;;;;;;4906243;28;90323;-80
2021/01/14 02:40:05;;;;;;;3.87;2.10;;;3.00;84.40;;;;;;4908911;28;86895;-80
2021/01/14 02:42:31;;;;;;;6.80;2.03;;;3.00;84.40;;;;;;4918141;28;86713;-78
2021/01/14 02:44:57;;;;;;;5.83;2.03;;;3.00;84.00;;;;;;4913199;28;87589;-80
2021/01/14 02:47:24;;;;;;;3.53;2.00;;;3.00;83.90;;;;;;4905924;28;90303;-80
2021/01/14 02:49:54;;;;;;;6.50;2.00;;;2.90;83.60;;;;;;4905807;28;87805;-80
2021/01/14 02:52:22;;;;;;;4.87;1.80;;;2.90;83.40;;;;;;4906305;28;86934;-80
2021/01/14 02:54:49;;;;;;;9.40;5.23;;;2.90;83.10;;;;;;4905241;28;91408;-80
2021/01/14 02:57:17;;;;;;;7.87;5.03;;;2.90;83.10;;;;;;4905510;28;90891;-80
2021/01/14 02:59:44;;;;;;;5.13;2.27;;;2.80;83.00;;;;;;4905751;28;87040;-80
2021/01/14 03:02:10;;;;;;;5.10;2.90;;;2.80;82.90;;;;;;4890327;28;87433;-80
2021/01/14 03:04:36;;;;;;;5.13;3.10;;;2.70;83.00;;;;;;4905165;28;91676;-80
2021/01/14 03:07:02;;;;;;;5.13;2.60;;;2.70;83.10;;;;;;4906077;28;90977;-80
2021/01/14 03:09:28;;;;;;;8.87;3.20;;;2.60;83.00;;;;;;4908545;28;87311;-81
2021/01/14 03:11:53;;;;;;;6.73;3.73;;;2.60;83.00;;;;;;4908114;28;86975;-80
2021/01/14 03:14:19;;;;;;;7.93;3.70;;;2.60;83.20;;;;;;4889063;28;92152;-80
2021/01/14 03:16:45;;;;;;;6.97;3.77;;;2.60;83.10;;;;;;4894706;28;92018;-80
2021/01/14 03:19:11;;;;;;;11.07;4.10;;;2.60;83.00;;;;;;4917803;28;86941;-80
2021/01/14 03:21:37;;;;;;;10.73;5.53;;;2.70;82.90;;;;;;4900505;28;87175;-79
2021/01/14 03:24:03;;;;;;;6.90;4.10;;;2.80;83.00;;;;;;4918935;28;88660;-81
2021/01/14 03:26:28;;;;;;;11.57;4.50;;;2.90;82.90;;;;;;4919045;28;91180;-81
2021/01/14 03:28:54;;;;;;;7.37;4.30;;;2.90;82.80;;;;;;4916648;28;86701;-80
2021/01/14 03:31:20;;;;;;;7.90;4.50;;;3.00;82.80;;;;;;4918352;28;86127;-80
2021/01/14 03:33:47;;;;;;;6.63;4.50;;;3.00;82.60;;;;;;4915478;28;90422;-80
2021/01/14 03:36:18;;;;;;;6.67;4.90;;;3.00;82.70;;;;;;4890403;28;91857;-80
2021/01/14 03:38:44;;;;;;;9.95;5.05;;;3.00;82.70;;;;;;4905987;28;87868;-80
2021/01/14 03:41:15;;;;;;;7.27;4.20;;;3.10;82.70;;;;;;4906056;28;87823;-80
2021/01/14 03:43:41;;;;;;;6.43;3.67;;;3.10;82.40;;;;;;4906459;28;87613;-80
2021/01/14 03:46:11;;;;;;;5.83;3.40;;;3.10;82.20;;;;;;4888855;28;91141;-80
2021/01/14 03:48:42;;;;;;;10.03;3.90;;;3.00;82.50;;;;;;4905771;28;86945;-78
2021/01/14 03:51:19;;;;;;;5.57;3.03;;;3.00;82.20;;;;;;4906356;28;87210;-80
2021/01/14 03:53:47;;;;;;;8.13;3.93;;;2.90;82.50;;;;;;4887680;28;91404;-80
2021/01/14 03:56:13;;;;;;;7.67;2.63;;;3.00;82.50;;;;;;4906430;28;87344;-80
2021/01/14 03:58:39;;;;;;;6.27;3.37;;;2.90;82.40;;;;;;4904074;28;86978;-80
2021/01/14 04:01:06;;;;;;;7.77;3.00;;;2.90;82.60;;;;;;4904196;28;87778;-80
2021/01/14 04:03:32;;;;;;;6.83;2.93;;;3.00;82.20;;;;;;4903620;28;92360;-80
2021/01/14 04:05:58;;;;;;;7.17;2.67;;;3.00;81.90;;;;;;4903726;28;88726;-80
2021/01/14 04:08:24;;;;;;;9.50;3.40;;;3.10;81.90;;;;;;4872509;28;87299;-80
2021/01/14 04:10:50;;;;;;;4.67;2.67;;;3.10;81.70;;;;;;4904887;28;88186;-80
2021/01/14 04:13:16;;;;;;;7.87;2.70;;;3.10;81.50;;;;;;4888506;28;91641;-80
2021/01/14 04:15:42;;;;;;;8.27;3.00;;;3.10;81.30;;;;;;4905375;28;87316;-79
2021/01/14 04:18:08;;;;;;;5.53;2.60;;;3.10;80.90;;;;;;4872885;28;87115;-80
2021/01/14 04:20:34;;;;;;;3.37;2.30;;;3.10;80.70;;;;;;4906153;28;86104;-80
2021/01/14 04:23:00;;;;;;;3.93;2.40;;;3.10;80.60;;;;;;4887931;28;87661;-80
2021/01/14 04:25:33;;;;;;;4.23;2.23;;;3.10;80.50;;;;;;4872192;28;90485;-80
2021/01/14 04:28:04;;;;;;;5.40;2.20;;;3.20;80.50;;;;;;4887550;28;87910;-80
2021/01/14 04:30:34;;;;;;;4.63;3.20;;;3.10;80.60;;;;;;4888212;28;87461;-80
2021/01/14 04:33:13;;;;;;;8.87;5.30;;;3.20;80.50;;;;;;4871738;28;91374;-80
2021/01/14 04:35:47;;;;;;;6.23;3.40;;;3.10;80.40;;;;;;4888111;28;91237;-78
2021/01/14 04:38:13;;;;;;;3.93;2.37;;;3.10;80.30;;;;;;4888756;28;87382;-80
2021/01/14 04:40:39;;;;;;;5.63;2.63;;;3.10;80.40;;;;;;4905277;28;87102;-80
2021/01/14 04:43:06;;;;;;;7.20;3.07;;;3.10;80.20;;;;;;4906820;28;87854;-80
2021/01/14 04:45:33;;;;;;;5.47;2.73;;;3.10;80.10;;;;;;4891060;28;87455;-80
2021/01/14 04:48:01;;;;;;;5.20;2.57;;;3.10;79.80;;;;;;4888824;28;87057;-79
2021/01/14 04:50:28;;;;;;;8.10;3.90;;;3.00;80.00;;;;;;4887111;28;86963;-80
2021/01/14 04:52:55;;;;;;;6.83;2.40;;;3.00;80.20;;;;;;4888580;28;92320;-80
2021/01/14 04:55:25;;;;;;;5.10;2.80;;;3.00;80.10;;;;;;4908173;28;89622;-80
2021/01/14 04:57:52;;;;;;;13.53;3.33;;;3.00;80.20;;;;;;4914221;28;86720;-80
2021/01/14 05:00:20;;;;;;;8.17;3.17;;;2.90;80.00;;;;;;4902046;28;88218;-80
2021/01/14 05:02:57;;;;;;;9.10;3.10;;;2.90;79.90;;;;;;4897919;28;87952;-79
2021/01/14 05:05:24;;;;;;;4.67;2.50;;;2.90;79.90;;;;;;4874864;28;90330;-80
2021/01/14 05:08:04;;;;;;;8.77;2.87;;;2.80;79.80;;;;;;4898617;28;86858;-79
2021/01/14 05:10:32;;;;;;;7.57;3.33;;;2.80;80.00;;;;;;4905062;28;86516;-80
2021/01/14 05:12:59;;;;;;;5.17;2.60;;;2.80;80.10;;;;;;4901866;28;88344;-80
2021/01/14 05:15:29;;;;;;;3.93;2.53;;;2.80;80.10;;;;;;4886719;28;89603;-80
2021/01/14 05:17:57;;;;;;;5.63;2.37;;;2.70;79.90;;;;;;4901884;28;88537;-79
2021/01/14 05:20:24;;;;;;;7.83;3.53;;;2.60;80.10;;;;;;4902938;28;87852;-79
2021/01/14 05:22:56;;;;;;;6.77;2.97;;;2.70;80.20;;;;;;4886057;28;91303;-80
2021/01/14 05:25:21;;;;;;;;;;;2.60;80.20;;;;;;4902988;28;90857;-80
2021/01/14 05:27:47;;;;;;;5.90;2.97;;;2.60;80.10;;;;;;4887886;28;86976;-79
2021/01/14 05:30:14;;;;;;;6.13;2.40;;;2.60;79.90;;;;;;4887213;28;87161;-80
2021/01/14 05:32:42;;;;;;;5.77;2.40;;;2.50;80.00;;;;;;4886483;28;91354;-80
2021/01/14 05:35:10;;;;;;;6.87;2.90;;;2.50;80.10;;;;;;4886776;28;91402;-79
2021/01/14 05:37:41;;;;;;;5.10;2.50;;;2.40;80.10;;;;;;4886947;28;87703;-80
2021/01/14 05:40:10;;;;;;;5.03;2.75;;;2.30;80.40;;;;;;4903466;28;86811;-79
2021/01/14 05:42:38;;;;;;;6.57;2.93;;;2.20;81.30;;;;;;4886085;28;92466;-79
2021/01/14 05:45:05;;;;;;;6.90;2.93;;;2.10;81.30;;;;;;4901783;28;92311;-79
2021/01/14 05:47:32;;;;;;;5.30;2.40;;;2.10;81.40;;;;;;4902249;28;86894;-79
2021/01/14 05:50:03;;;;;;;4.87;2.83;;;2.20;81.50;;;;;;4885509;28;87884;-80
2021/01/14 05:52:29;;;;;;;5.70;2.30;;;2.20;81.40;;;;;;4904116;28;91654;-80
2021/01/14 05:55:03;;;;;;;3.43;2.50;;;2.20;81.20;;;;;;4905495;28;90775;-80
2021/01/14 05:57:31;;;;;;;4.33;2.50;;;2.30;81.40;;;;;;4907519;28;86852;-80
2021/01/14 06:00:09;;;;;;;5.80;2.53;;;2.30;81.30;;;;;;4906816;28;86322;-80
2021/01/14 06:02:35;;;;;;;4.73;2.53;;;2.40;81.80;;;;;;4890241;28;91458;-80
2021/01/14 06:05:00;;;;;;;5.77;2.70;;;2.40;81.40;;;;;;4888838;28;90162;-80
2021/01/14 06:07:46;;;;;;;6.83;2.47;;;2.40;81.20;;;;;;4905012;28;87894;-80
2021/01/14 06:10:30;;;;;;;4.57;2.33;;;2.50;81.70;;;;;;4904944;28;87115;-79
2021/01/14 06:12:56;;;;;;;4.03;2.93;;;2.50;82.00;;;;;;4888909;28;91851;-80
2021/01/14 06:15:21;;;;;;;8.27;2.97;;;2.50;82.00;;;;;;4906885;28;87318;-80
2021/01/14 06:17:48;;;;;;;4.60;3.07;;;2.50;82.10;;;;;;4889238;28;86920;-78
2021/01/14 06:20:14;;;;;;;5.63;3.30;;;2.50;82.50;;;;;;4906817;28;87040;-80
2021/01/14 06:22:44;;;;;;;4.83;3.33;;;2.50;82.50;;;;;;4889524;28;90431;-80
2021/01/14 06:25:10;;;;;;;7.80;3.60;;;2.60;82.40;;;;;;4905762;28;88045;-79
2021/01/14 06:27:37;;;;;;;5.80;3.37;;;2.50;82.60;;;;;;4905228;28;86976;-80
2021/01/14 06:30:09;;;;;;;8.27;3.63;;;2.50;82.70;;;;;;4904485;28;87367;-79
2021/01/14 06:32:38;;;;;;;7.23;4.30;;;2.60;82.90;;;;;;4888851;28;92966;-81
2021/01/14 06:35:06;;;;;;;8.67;4.20;;;2.50;83.00;;;;;;4904213;28;87337;-80
2021/01/14 06:37:38;;;;;;;7.37;4.13;;;2.60;82.90;;;;;;4905348;28;86741;-80
2021/01/14 06:40:06;;;;;;;7.20;4.30;;;2.60;82.80;;;;;;4888156;28;87893;-80
2021/01/14 06:42:34;;;;;;;12.60;5.77;;;2.60;82.20;;;;;;4893891;28;90321;-80
2021/01/14 06:45:00;;;;;;;12.07;5.90;;;2.60;82.40;;;;;;4894737;28;88327;-80
2021/01/14 06:47:38;;;;;;;11.00;5.30;;;2.60;82.40;;;;;;4894819;28;87551;-80
2021/01/14 06:50:23;;;;;;;8.87;4.90;;;2.60;82.80;;;;;;4877647;28;88193;-80
2021/01/14 06:52:55;;;;;;;9.67;4.87;;;2.60;83.00;;;;;;4894258;28;88180;-77
2021/01/14 06:55:23;;;;;;;7.32;5.00;;;2.60;83.60;;;;;;4879120;28;90360;-80
2021/01/14 06:58:09;;;;;;;8.10;4.37;;;2.70;82.90;;;;;;4894016;28;87941;-78
2021/01/14 07:00:38;;;;;;;9.47;4.73;;;2.70;83.00;;;;;;4895365;28;87472;-80
2021/01/14 07:03:16;;;;;;;9.43;4.87;;;2.70;82.80;;;;;;4894989;28;91835;-80
2021/01/14 07:05:54;;;;;;;7.73;4.40;;;2.80;82.60;;;;;;4895597;28;91123;-79
2021/01/14 07:08:39;;;;;;;7.87;4.40;;;2.80;82.40;;;;;;4893630;28;87073;-80
2021/01/14 07:11:06;;;;;;;11.27;5.03;;;2.80;82.40;;;;;;4893293;28;87787;-80
2021/01/14 07:13:34;;;;;;;9.10;5.10;;;2.80;82.40;;;;;;4895700;28;88636;-80
2021/01/14 07:16:01;;;;;;;10.23;4.97;;;2.80;82.90;;;;;;4887578;28;87803;-79
2021/01/14 07:18:32;;;;;;;8.20;5.00;;;2.80;82.40;;;;;;4872091;28;87782;-80
2021/01/14 07:21:23;;;;;;;7.07;4.50;;;2.80;82.50;;;;;;4889596;28;87200;-80
2021/01/14 07:23:56;;;;;;;9.30;4.73;;;2.80;82.50;;;;;;4897671;28;88576;-78
2021/01/14 07:26:23;;;;;;;8.53;4.37;;;2.80;82.50;;;;;;4885709;28;91329;-80
2021/01/14 07:28:51;;;;;;;9.83;4.67;;;2.80;82.50;;;;;;4885729;28;87090;-77
2021/01/14 07:31:27;;;;;;;10.27;5.20;;;2.80;82.30;;;;;;4888955;28;86998;-79
2021/01/14 07:33:54;;;;;;;10.03;5.13;;;2.90;82.40;;;;;;4869727;28;91935;-78
2021/01/14 07:36:26;;;;;;;8.47;5.83;;;2.90;82.30;;;;;;4884896;28;90294;-79
2021/01/14 07:39:00;;;;;;;10.73;5.40;;;3.00;82.50;;;;;;4885985;28;86838;-78
2021/01/14 07:41:25;;;;;;;11.33;6.17;;;3.00;82.60;;;;;;4885555;28;87896;-79
2021/01/14 07:43:52;;;;;;;7.40;4.87;;;3.10;82.40;;;;;;4885670;28;87687;-78
2021/01/14 07:46:23;;;;;;;10.43;5.80;;;3.10;82.20;;;;;;4885861;28;87541;-79
2021/01/14 07:48:53;;;;;;;9.10;5.50;;;3.10;82.50;;;;;;4886356;28;87928;-80
2021/01/14 07:51:20;;;;;;;10.07;5.13;;;3.10;82.60;;;;;;4885663;28;86826;-79
2021/01/14 07:54:06;;;;;;;7.73;5.03;;;3.10;82.70;;;;;;4885225;28;88341;-79
2021/01/14 07:56:49;;;;;;;7.60;5.10;;;3.10;82.50;;;;;;4885756;28;88072;-79
2021/01/14 07:59:29;;;;;;;7.23;4.70;;;3.20;82.30;;;;;;4885022;28;86976;-79
2021/01/14 08:02:07;;;;;;;8.03;5.00;;;3.10;82.10;;;;;;4899124;28;87424;-78
2021/01/14 08:04:49;;;;;;;14.67;5.47;;;3.10;82.00;;;;;;4889099;28;91184;-78
2021/01/14 08:07:26;;;;;;;9.77;5.97;;;3.10;82.70;;;;;;4905275;28;87953;-79
2021/01/14 08:09:52;;;;;;;11.43;6.13;;;3.20;82.50;;;;;;4903698;28;86861;-80
2021/01/14 08:12:26;;;;;;;13.27;5.80;;;3.20;82.30;;;;;;4907821;28;87125;-78
2021/01/14 08:14:52;;;;;;;14.13;6.23;;;3.20;82.20;;;;;;4890035;28;92373;-80
2021/01/14 08:17:27;;;;;;;11.83;5.50;;;3.30;82.10;;;;;;4873923;28;92537;-80
2021/01/14 08:19:55;;;;;;;9.73;6.27;;;3.30;82.20;;;;;;4872848;28;86957;-80
2021/01/14 08:22:21;;;;;;;11.30;6.43;;;3.30;82.30;;;;;;4889214;28;87046;-79
2021/01/14 08:25:02;;;;;;;12.43;7.00;;;3.30;82.10;;;;;;4889896;28;90923;-79
2021/01/14 08:27:36;;;;;;;12.40;6.60;;;3.40;82.10;;;;;;4889611;28;90246;-81
2021/01/14 08:30:06;;;;;;;22.53;7.17;;;3.40;82.10;;;;;;4891027;28;86721;-79
2021/01/14 08:32:42;;;;;;;11.33;5.70;;;3.40;82.00;;;;;;4897068;28;88316;-79
2021/01/14 08:35:17;;;;;;;11.97;7.13;;;3.40;82.10;;;;;;4883847;28;91846;-79
2021/01/14 08:37:47;;;;;;;16.53;8.47;;;3.40;82.10;;;;;;4922014;28;86956;-82
2021/01/14 08:40:22;;;;;;;13.43;7.77;;;3.40;82.00;;;;;;4905093;28;88473;-80
2021/01/14 08:42:59;;;;;;;14.10;7.17;;;3.50;82.10;;;;;;4908770;28;87082;-81
2021/01/14 08:45:28;;;;;;;13.17;7.03;;;3.50;82.30;;;;;;4892306;28;88270;-82
2021/01/14 08:47:58;;;;;;;12.40;7.43;;;3.60;82.10;;;;;;4893506;28;91797;-80
2021/01/14 08:50:44;;;;;;;18.40;9.03;;;3.70;82.00;;;;;;4896580;28;86766;-81
2021/01/14 08:53:22;;;;;;;17.50;8.57;;;3.70;81.90;;;;;;4904972;28;86861;-81
2021/01/14 08:55:59;;;;;;;15.70;8.80;;;3.80;81.50;;;;;;4876592;28;89621;-81
2021/01/14 08:58:47;;;;;;;15.63;8.50;;;3.80;81.40;;;;;;4883316;28;88001;-81
2021/01/14 09:01:20;;;;;;;12.93;7.87;;;3.80;81.60;;;;;;4866574;28;87212;-82
2021/01/14 09:03:50;;;;;;;15.10;8.40;;;3.80;81.20;;;;;;4877052;28;87730;-81
2021/01/14 09:06:27;;;;;;;18.47;9.37;;;3.80;81.40;;;;;;4911562;28;88068;-82
2021/01/14 09:08:54;;;;;;;22.40;10.63;;;3.80;81.40;;;;;;4890880;28;90242;-80
2021/01/14 09:11:24;;;;;;;17.17;10.37;;;3.80;81.40;;;;;;4876423;28;86986;-81
2021/01/14 09:14:15;;;;;;;22.17;9.77;;;3.70;81.50;;;;;;4876735;28;87168;-81
2021/01/14 09:16:43;;;;;;;15.57;9.50;;;3.80;81.60;;;;;;4892471;28;91984;-81
2021/01/14 09:19:19;;;;;;;18.20;10.30;;;3.80;81.70;;;;;;4888643;28;88448;-81
2021/01/14 09:21:46;;;;;;;19.23;11.07;;;3.80;81.90;;;;;;4895622;28;87048;-81
2021/01/14 09:24:14;;;;;;;21.40;11.87;;;3.80;82.00;;;;;;4898567;28;86382;-81
2021/01/14 09:26:41;;;;;;;16.87;11.30;;;3.90;81.80;;;;;;4877307;28;89924;-81
2021/01/14 09:29:08;;;;;;;18.37;11.20;;;3.80;82.00;;;;;;4872375;28;91547;-81
2021/01/14 09:31:34;;;;;;;15.17;10.30;;;3.90;82.10;;;;;;4907455;28;87970;-81
2021/01/14 09:34:02;;;;;;;14.60;9.53;;;3.90;82.00;;;;;;4885290;28;87865;-80
2021/01/14 09:36:28;;;;;;;15.63;9.90;;;4.00;82.00;;;;;;4912114;28;90869;-81
2021/01/14 09:39:00;;;;;;;19.73;11.17;;;4.00;81.90;;;;;;4921439;28;88600;-81
2021/01/14 09:41:36;;;;;;;19.80;12.02;;;4.00;82.00;;;;;;4918350;28;87027;-82
2021/01/14 09:44:07;;;;;;;21.73;12.07;;;4.00;81.90;;;;;;4929296;28;86376;-79
2021/01/14 09:46:38;;;;;;;16.70;10.53;;;4.10;81.80;;;;;;4885321;28;90736;-81
2021/01/14 09:49:05;;;;;;;12.67;9.50;;;4.10;81.80;;;;;;4917254;28;86326;-81
2021/01/14 09:51:38;;;;;;;13.13;8.63;;;4.10;81.80;;;;;;4902945;28;86844;-81
2021/01/14 09:54:06;;;;;;;15.03;10.20;;;4.20;81.80;;;;;;4879554;28;87140;-81
2021/01/14 09:56:41;;;;;;;18.80;11.20;;;4.20;82.00;;;;;;4886327;28;91521;-80
2021/01/14 09:59:33;;;;;;;16.97;12.57;;;4.20;81.90;;;;;;4863724;28;92312;-80
2021/01/14 10:02:05;;;;;;;;;;;4.20;82.00;;;;;;4887940;28;87093;-80
2021/01/14 10:04:35;;;;;;;17.00;12.43;;;4.20;81.80;;;;;;4905794;28;86949;-80
2021/01/14 10:07:04;;;;;;;18.40;12.70;;;4.20;81.90;;;;;;4887407;28;86817;-80
2021/01/14 10:09:34;;;;;;;17.90;12.97;;;4.20;82.00;;;;;;4893007;28;89586;-80
2021/01/14 10:12:01;;;;;;;18.27;13.67;;;4.30;82.10;;;;;;4894402;28;87021;-79
2021/01/14 10:14:26;;;;;;;23.90;14.27;;;4.30;82.10;;;;;;4907067;28;87815;-81
2021/01/14 10:16:52;;;;;;;20.10;15.33;;;4.30;82.30;;;;;;4909305;28;89732;-81
2021/01/14 10:19:20;;;;;;;21.50;15.37;;;4.20;82.30;;;;;;4917243;28;89570;-82
2021/01/14 10:21:47;;;;;;;22.47;17.57;;;4.20;82.40;;;;;;4930489;28;87161;-82
2021/01/14 10:24:29;;;;;;;22.37;17.17;;;4.20;82.60;;;;;;4914453;28;86540;-82
2021/01/14 10:27:09;;;;;;;;;;;4.20;82.70;;;;;;4923603;28;86991;-81
2021/01/14 10:29:38;;;;;;;30.17;19.73;;;4.20;82.90;;;;;;4934377;28;89244;-81
2021/01/14 10:32:09;;;;;;;28.80;20.93;;;4.20;82.90;;;;;;4912682;28;86245;-81
2021/01/14 10:34:39;;;;;;;28.80;21.40;;;4.20;82.90;;;;;;4910639;28;86565;-81
2021/01/14 10:37:05;;;;;;;33.43;23.57;;;4.30;82.90;;;;;;4914722;28;86785;-81
2021/01/14 10:39:40;;;;;;;29.63;22.00;;;4.30;82.70;;;;;;4918868;28;89420;-82
2021/01/14 10:42:32;;;;;;;29.33;21.60;;;4.40;82.60;;;;;;4905888;28;86193;-81
2021/01/14 10:45:09;;;;;;;31.05;21.73;;;4.50;82.40;;;;;;4913719;28;86431;-81
2021/01/14 10:47:37;;;;;;;34.63;23.67;;;4.60;81.90;;;;;;4911667;28;90668;-81
2021/01/14 10:50:21;;;;;;;37.83;25.10;;;4.70;81.50;;;;;;4927828;28;90205;-81
2021/01/14 10:52:58;;;;;;;32.13;24.33;;;4.80;81.10;;;;;;4927748;28;86786;-81
2021/01/14 10:55:24;;;;;;;34.93;25.07;;;4.90;80.50;;;;;;4927060;28;86809;-81
2021/01/14 10:57:50;;;;;;;38.17;27.87;;;4.90;80.20;;;;;;4907235;28;89067;-82
2021/01/14 11:00:20;;;;;;;41.30;30.17;;;5.00;80.20;;;;;;4923545;28;89330;-81
2021/01/14 11:02:47;;;;;;;41.47;29.40;;;5.00;79.70;;;;;;4928838;28;86644;-82
2021/01/14 11:05:14;;;;;;;40.30;29.63;;;5.10;79.00;;;;;;4911786;28;86551;-81
2021/01/14 11:07:41;;;;;;;47.03;31.80;;;5.00;79.30;;;;;;4908518;28;89609;-82
2021/01/14 11:10:08;;;;;;;46.37;33.73;;;4.90;79.70;;;;;;4916579;28;89664;-81
2021/01/14 11:12:34;;;;;;;47.10;32.73;;;4.90;79.80;;;;;;4895605;28;87149;-81
2021/01/14 11:15:00;;;;;;;45.53;32.40;;;4.80;79.60;;;;;;4927669;28;86607;-82
2021/01/14 11:17:28;;;;;;;50.27;32.90;;;4.80;80.00;;;;;;4922059;28;87780;-82
2021/01/14 11:19:54;;;;;;;48.27;32.47;;;4.80;79.90;;;;;;4886782;28;89465;-80
2021/01/14 11:22:20;;;;;;;47.17;34.30;;;4.70;80.10;;;;;;4858284;28;87444;-82
2021/01/14 11:24:45;;;;;;;49.63;34.20;;;4.70;80.50;;;;;;4896132;28;86879;-79
2021/01/14 11:27:11;;;;;;;49.37;33.40;;;4.70;80.10;;;;;;4883766;28;91471;-80
2021/01/14 11:29:37;;;;;;;41.67;30.37;;;4.70;80.10;;;;;;4857610;28;91181;-82
2021/01/14 11:32:03;;;;;;;45.10;32.67;;;4.70;79.60;;;;;;4866074;28;86920;-78
2021/01/14 11:34:29;;;;;;;50.40;32.63;;;4.70;80.00;;;;;;4870752;28;87497;-79
2021/01/14 11:36:55;;;;;;;48.77;31.83;;;4.80;79.00;;;;;;4888453;28;88570;-80
2021/01/14 11:39:21;;;;;;;52.03;32.23;;;4.80;78.30;;;;;;4885888;28;92256;-80
2021/01/14 11:41:51;;;;;;;47.73;30.53;;;4.70;77.90;;;;;;4886113;28;87066;-80
2021/01/14 11:44:17;;;;;;;48.60;31.77;;;4.60;78.60;;;;;;4885121;28;88267;-79
2021/01/14 11:46:43;;;;;;;52.87;33.80;;;4.50;79.10;;;;;;4857816;28;90710;-80
2021/01/14 11:49:09;;;;;;;47.97;30.17;;;4.50;79.20;;;;;;4854269;28;91280;-80
2021/01/14 11:51:35;;;;;;;43.30;29.70;;;4.50;79.30;;;;;;4889846;28;87499;-80
2021/01/14 11:54:00;;;;;;;43.40;25.63;;;4.60;79.10;;;;;;4875421;28;88065;-80
2021/01/14 11:56:26;;;;;;;40.60;28.17;;;4.60;78.60;;;;;;4877526;28;89961;-80
2021/01/14 11:58:52;;;;;;;39.07;26.30;;;4.70;78.20;;;;;;4902564;28;91253;-80
2021/01/14 12:01:22;;;;;;;37.57;24.60;;;4.80;77.10;;;;;;4889985;28;87674;-80
2021/01/14 12:03:48;;;;;;;35.70;24.07;;;4.80;77.20;;;;;;4904549;28;87011;-80
2021/01/14 12:06:13;;;;;;;36.80;24.63;;;4.90;76.50;;;;;;4888648;28;90822;-81
2021/01/14 12:08:39;;;;;;;38.50;24.57;;;4.90;76.40;;;;;;4926093;28;86929;-80
2021/01/14 12:11:05;;;;;;;33.63;22.50;;;5.00;76.50;;;;;;4892925;28;86980;-80
2021/01/14 12:13:31;;;;;;;33.93;23.27;;;5.00;75.40;;;;;;4893093;28;87105;-81
2021/01/14 12:15:56;;;;;;;33.70;22.70;;;4.90;75.10;;;;;;4925755;28;86764;-82
2021/01/14 12:18:23;;;;;;;36.80;24.30;;;4.90;75.80;;;;;;4893059;28;89209;-80
2021/01/14 12:20:49;;;;;;;35.70;23.13;;;4.90;75.30;;;;;;4891357;28;86832;-80
2021/01/14 12:23:15;;;;;;;36.60;23.20;;;5.00;74.90;;;;;;4891949;28;86609;-80
2021/01/14 12:25:40;;;;;;;33.97;22.60;;;5.00;74.00;;;;;;4924331;28;87655;-80
2021/01/14 12:28:06;;;;;;;35.77;22.93;;;5.10;74.10;;;;;;4892145;28;90332;-80
2021/01/14 12:30:33;;;;;;;40.07;24.13;;;5.10;74.30;;;;;;4924740;28;87099;-80
2021/01/14 12:32:59;;;;;;;32.60;22.37;;;5.10;73.90;;;;;;4908804;28;86485;-81
2021/01/14 12:35:24;;;;;;;36.33;23.97;;;5.20;74.00;;;;;;4907428;28;89985;-81
2021/01/14 12:37:50;;;;;;;41.73;26.80;;;5.30;73.50;;;;;;4892752;28;89384;-80
2021/01/14 12:40:16;;;;;;;40.80;27.43;;;5.20;73.50;;;;;;4908204;28;86574;-80
2021/01/14 12:42:42;;;;;;;42.23;26.77;;;5.30;73.50;;;;;;4889036;28;86008;-80
2021/01/14 12:45:08;;;;;;;44.23;28.53;;;5.30;73.60;;;;;;4905680;28;86509;-80
2021/01/14 12:47:33;;;;;;;43.60;27.47;;;5.30;73.20;;;;;;4897815;28;88926;-81
2021/01/14 12:49:59;;;;;;;39.57;26.67;;;5.20;73.60;;;;;;4903683;28;87856;-80
2021/01/14 12:52:25;;;;;;;43.63;27.67;;;5.20;73.90;;;;;;4900016;28;87088;-80
2021/01/14 12:54:51;;;;;;;44.50;28.67;;;5.20;74.20;;;;;;4867551;28;89644;-79
2021/01/14 12:57:17;;;;;;;41.87;27.30;;;5.20;74.50;;;;;;4886115;28;86689;-80
2021/01/14 12:59:42;;;;;;;45.77;28.53;;;5.20;74.60;;;;;;4887188;28;87065;-81
2021/01/14 13:02:08;;;;;;;38.80;27.00;;;5.30;74.80;;;;;;4878352;28;87585;-79